sensor_id;sensor_type;location;lat;lon;timestamp;P1;durP1;ratioP1;P2;durP2;ratioP2
6955;SDS011;50345;51.136;16.886;2022-07-01T00:00:37;18.07;;;15.83;;
6955;SDS011;50345;51.136;16.886;2022-07-01T00:03:02;17.47;;;16.17;;
6955;SDS011;50345;51.136;16.886;2022-07-01T00:05:29;14.97;;;13.57;;
6955;SDS011;50345;51.136;16.886;2022-07-01T00:07:55;17.50;;;16.00;;
6955;SDS011;50345;51.136;16.886;2022-07-01T00:10:21;18.57;;;17.23;;
6955;SDS011;50345;51.136;16.886;2022-07-01T00:12:46;15.93;;;14.57;;
6955;SDS011;50345;51.136;16.886;2022-07-01T00:15:12;16.73;;;15.53;;
6955;SDS011;50345;51.136;16.886;2022-07-01T00:17:38;17.90;;;16.30;;
6955;SDS011;50345;51.136;16.886;2022-07-01T00:20:05;19.07;;;17.57;;
6955;SDS011;50345;51.136;16.886;2022-07-01T00:22:32;17.63;;;16.20;;
6955;SDS011;50345;51.136;16.886;2022-07-01T00:24:58;17.23;;;16.00;;
6955;SDS011;50345;51.136;16.886;2022-07-01T00:27:24;18.07;;;16.50;;
6955;SDS011;50345;51.136;16.886;2022-07-01T00:29:50;18.53;;;17.03;;
6955;SDS011;50345;51.136;16.886;2022-07-01T00:32:16;17.57;;;16.20;;
6955;SDS011;50345;51.136;16.886;2022-07-01T00:34:41;19.27;;;17.57;;
6955;SDS011;50345;51.136;16.886;2022-07-01T00:37:07;19.00;;;17.43;;
6955;SDS011;50345;51.136;16.886;2022-07-01T00:39:33;18.33;;;16.83;;
6955;SDS011;50345;51.136;16.886;2022-07-01T00:42:00;18.97;;;17.20;;
6955;SDS011;50345;51.136;16.886;2022-07-01T00:44:27;18.13;;;16.63;;
6955;SDS011;50345;51.136;16.886;2022-07-01T00:46:53;18.00;;;16.00;;
6955;SDS011;50345;51.136;16.886;2022-07-01T00:49:19;17.27;;;15.90;;
6955;SDS011;50345;51.136;16.886;2022-07-01T00:51:45;18.60;;;16.90;;
6955;SDS011;50345;51.136;16.886;2022-07-01T00:54:11;17.37;;;16.07;;
6955;SDS011;50345;51.136;16.886;2022-07-01T00:56:37;15.83;;;14.53;;
6955;SDS011;50345;51.136;16.886;2022-07-01T00:59:03;17.60;;;16.10;;
6955;SDS011;50345;51.136;16.886;2022-07-01T01:01:28;16.97;;;15.37;;
6955;SDS011;50345;51.136;16.886;2022-07-01T01:03:54;16.00;;;14.80;;
6955;SDS011;50345;51.136;16.886;2022-07-01T01:06:21;17.10;;;15.63;;
6955;SDS011;50345;51.136;16.886;2022-07-01T01:08:46;17.23;;;15.73;;
6955;SDS011;50345;51.136;16.886;2022-07-01T01:11:14;16.30;;;15.13;;
6955;SDS011;50345;51.136;16.886;2022-07-01T01:13:40;16.87;;;15.50;;
6955;SDS011;50345;51.136;16.886;2022-07-01T01:16:06;16.80;;;15.50;;
6955;SDS011;50345;51.136;16.886;2022-07-01T01:18:32;16.80;;;15.20;;
6955;SDS011;50345;51.136;16.886;2022-07-01T01:20:58;16.47;;;14.90;;
6955;SDS011;50345;51.136;16.886;2022-07-01T01:23:24;15.60;;;14.50;;
6955;SDS011;50345;51.136;16.886;2022-07-01T01:25:50;17.30;;;16.00;;
6955;SDS011;50345;51.136;16.886;2022-07-01T01:28:15;16.00;;;14.50;;
6955;SDS011;50345;51.136;16.886;2022-07-01T01:30:41;17.80;;;16.40;;
6955;SDS011;50345;51.136;16.886;2022-07-01T01:33:07;16.40;;;15.10;;
6955;SDS011;50345;51.136;16.886;2022-07-01T01:35:36;18.10;;;16.63;;
6955;SDS011;50345;51.136;16.886;2022-07-01T01:38:02;17.20;;;15.90;;
6955;SDS011;50345;51.136;16.886;2022-07-01T01:40:28;16.90;;;15.50;;
6955;SDS011;50345;51.136;16.886;2022-07-01T01:42:53;16.33;;;14.70;;
6955;SDS011;50345;51.136;16.886;2022-07-01T01:45:19;16.60;;;15.30;;
6955;SDS011;50345;51.136;16.886;2022-07-01T01:47:45;16.50;;;14.87;;
6955;SDS011;50345;51.136;16.886;2022-07-01T01:50:11;17.83;;;16.30;;
6955;SDS011;50345;51.136;16.886;2022-07-01T01:52:39;17.93;;;16.13;;
6955;SDS011;50345;51.136;16.886;2022-07-01T01:55:08;17.50;;;16.00;;
6955;SDS011;50345;51.136;16.886;2022-07-01T01:57:34;16.60;;;15.30;;
6955;SDS011;50345;51.136;16.886;2022-07-01T02:00:00;17.13;;;15.83;;
6955;SDS011;50345;51.136;16.886;2022-07-01T02:02:25;18.63;;;17.13;;
6955;SDS011;50345;51.136;16.886;2022-07-01T02:04:51;16.47;;;15.17;;
6955;SDS011;50345;51.136;16.886;2022-07-01T02:07:17;16.57;;;14.83;;
6955;SDS011;50345;51.136;16.886;2022-07-01T02:09:43;15.67;;;14.17;;
6955;SDS011;50345;51.136;16.886;2022-07-01T02:12:09;16.97;;;15.50;;
6955;SDS011;50345;51.136;16.886;2022-07-01T02:14:35;17.43;;;15.83;;
6955;SDS011;50345;51.136;16.886;2022-07-01T02:17:00;17.77;;;16.27;;
6955;SDS011;50345;51.136;16.886;2022-07-01T02:19:26;15.83;;;14.47;;
6955;SDS011;50345;51.136;16.886;2022-07-01T02:21:51;16.33;;;15.00;;
6955;SDS011;50345;51.136;16.886;2022-07-01T02:24:17;19.60;;;18.10;;
6955;SDS011;50345;51.136;16.886;2022-07-01T02:26:43;17.77;;;16.30;;
6955;SDS011;50345;51.136;16.886;2022-07-01T02:29:09;15.67;;;14.37;;
6955;SDS011;50345;51.136;16.886;2022-07-01T02:31:35;17.20;;;15.40;;
6955;SDS011;50345;51.136;16.886;2022-07-01T02:34:00;18.37;;;16.77;;
6955;SDS011;50345;51.136;16.886;2022-07-01T02:36:26;18.07;;;16.63;;
6955;SDS011;50345;51.136;16.886;2022-07-01T02:38:52;17.37;;;16.07;;
6955;SDS011;50345;51.136;16.886;2022-07-01T02:41:17;17.60;;;15.83;;
6955;SDS011;50345;51.136;16.886;2022-07-01T02:43:43;18.13;;;16.60;;
6955;SDS011;50345;51.136;16.886;2022-07-01T02:46:09;17.97;;;16.47;;
6955;SDS011;50345;51.136;16.886;2022-07-01T02:48:34;17.07;;;15.67;;
6955;SDS011;50345;51.136;16.886;2022-07-01T02:51:00;17.43;;;15.87;;
6955;SDS011;50345;51.136;16.886;2022-07-01T02:53:25;16.60;;;15.10;;
6955;SDS011;50345;51.136;16.886;2022-07-01T02:55:51;16.07;;;14.83;;
6955;SDS011;50345;51.136;16.886;2022-07-01T02:58:16;15.30;;;14.10;;
6955;SDS011;50345;51.136;16.886;2022-07-01T03:00:42;16.93;;;15.40;;
6955;SDS011;50345;51.136;16.886;2022-07-01T03:03:08;16.73;;;15.43;;
6955;SDS011;50345;51.136;16.886;2022-07-01T03:05:34;17.87;;;15.27;;
6955;SDS011;50345;51.136;16.886;2022-07-01T03:07:59;17.83;;;15.17;;
6955;SDS011;50345;51.136;16.886;2022-07-01T03:10:25;17.77;;;15.53;;
6955;SDS011;50345;51.136;16.886;2022-07-01T03:12:51;15.73;;;14.43;;
6955;SDS011;50345;51.136;16.886;2022-07-01T03:15:17;17.13;;;15.73;;
6955;SDS011;50345;51.136;16.886;2022-07-01T03:17:43;16.60;;;15.20;;
6955;SDS011;50345;51.136;16.886;2022-07-01T03:20:14;16.30;;;14.80;;
6955;SDS011;50345;51.136;16.886;2022-07-01T03:22:41;15.50;;;14.20;;
6955;SDS011;50345;51.136;16.886;2022-07-01T03:25:08;16.87;;;15.30;;
6955;SDS011;50345;51.136;16.886;2022-07-01T03:27:34;16.37;;;14.83;;
6955;SDS011;50345;51.136;16.886;2022-07-01T03:30:01;16.63;;;15.10;;
6955;SDS011;50345;51.136;16.886;2022-07-01T03:32:29;14.20;;;13.07;;
6955;SDS011;50345;51.136;16.886;2022-07-01T03:34:54;15.27;;;13.70;;
6955;SDS011;50345;51.136;16.886;2022-07-01T03:37:20;14.20;;;12.70;;
6955;SDS011;50345;51.136;16.886;2022-07-01T03:39:47;13.33;;;12.33;;
6955;SDS011;50345;51.136;16.886;2022-07-01T03:42:13;14.60;;;13.47;;
6955;SDS011;50345;51.136;16.886;2022-07-01T03:44:39;15.17;;;13.70;;
6955;SDS011;50345;51.136;16.886;2022-07-01T03:47:05;13.50;;;12.40;;
6955;SDS011;50345;51.136;16.886;2022-07-01T03:49:32;14.77;;;13.30;;
6955;SDS011;50345;51.136;16.886;2022-07-01T03:51:58;15.60;;;14.20;;
6955;SDS011;50345;51.136;16.886;2022-07-01T03:54:24;14.70;;;13.50;;
6955;SDS011;50345;51.136;16.886;2022-07-01T03:56:59;13.50;;;12.40;;
6955;SDS011;50345;51.136;16.886;2022-07-01T03:59:27;14.60;;;13.40;;
6955;SDS011;50345;51.136;16.886;2022-07-01T04:01:54;14.33;;;12.93;;
6955;SDS011;50345;51.136;16.886;2022-07-01T04:04:20;14.40;;;12.97;;
6955;SDS011;50345;51.136;16.886;2022-07-01T04:06:47;13.93;;;12.83;;
6955;SDS011;50345;51.136;16.886;2022-07-01T04:09:14;15.60;;;14.17;;
6955;SDS011;50345;51.136;16.886;2022-07-01T04:11:41;13.60;;;12.60;;
6955;SDS011;50345;51.136;16.886;2022-07-01T04:14:08;15.33;;;14.10;;
6955;SDS011;50345;51.136;16.886;2022-07-01T04:16:34;16.53;;;15.00;;
6955;SDS011;50345;51.136;16.886;2022-07-01T04:19:00;28.00;;;25.70;;
6955;SDS011;50345;51.136;16.886;2022-07-01T04:21:26;24.60;;;22.50;;
6955;SDS011;50345;51.136;16.886;2022-07-01T04:24:10;23.10;;;21.00;;
6955;SDS011;50345;51.136;16.886;2022-07-01T04:26:38;22.10;;;20.20;;
6955;SDS011;50345;51.136;16.886;2022-07-01T04:29:04;20.60;;;18.60;;
6955;SDS011;50345;51.136;16.886;2022-07-01T04:31:32;19.37;;;16.77;;
6955;SDS011;50345;51.136;16.886;2022-07-01T04:33:58;20.40;;;18.63;;
6955;SDS011;50345;51.136;16.886;2022-07-01T04:36:24;21.83;;;19.67;;
6955;SDS011;50345;51.136;16.886;2022-07-01T04:38:50;20.93;;;19.07;;
6955;SDS011;50345;51.136;16.886;2022-07-01T04:41:15;24.20;;;20.60;;
6955;SDS011;50345;51.136;16.886;2022-07-01T04:43:59;21.67;;;19.80;;
6955;SDS011;50345;51.136;16.886;2022-07-01T04:46:27;24.10;;;21.70;;
6955;SDS011;50345;51.136;16.886;2022-07-01T04:48:53;21.70;;;19.80;;
6955;SDS011;50345;51.136;16.886;2022-07-01T04:51:19;21.73;;;19.80;;
6955;SDS011;50345;51.136;16.886;2022-07-01T04:53:45;23.70;;;21.27;;
6955;SDS011;50345;51.136;16.886;2022-07-01T04:56:10;24.40;;;21.80;;
6955;SDS011;50345;51.136;16.886;2022-07-01T04:58:36;23.93;;;21.80;;
6955;SDS011;50345;51.136;16.886;2022-07-01T05:01:01;23.07;;;20.80;;
6955;SDS011;50345;51.136;16.886;2022-07-01T05:03:27;22.23;;;20.10;;
6955;SDS011;50345;51.136;16.886;2022-07-01T05:05:53;20.50;;;18.70;;
6955;SDS011;50345;51.136;16.886;2022-07-01T05:08:18;22.40;;;20.20;;
6955;SDS011;50345;51.136;16.886;2022-07-01T05:10:44;21.33;;;19.37;;
6955;SDS011;50345;51.136;16.886;2022-07-01T05:13:09;19.83;;;18.20;;
6955;SDS011;50345;51.136;16.886;2022-07-01T05:15:35;19.77;;;17.90;;
6955;SDS011;50345;51.136;16.886;2022-07-01T05:18:01;19.63;;;17.90;;
6955;SDS011;50345;51.136;16.886;2022-07-01T05:20:45;21.70;;;17.93;;
6955;SDS011;50345;51.136;16.886;2022-07-01T05:23:29;17.20;;;15.43;;
6955;SDS011;50345;51.136;16.886;2022-07-01T05:25:54;17.50;;;16.00;;
6955;SDS011;50345;51.136;16.886;2022-07-01T05:28:20;21.53;;;15.73;;
6955;SDS011;50345;51.136;16.886;2022-07-01T05:30:45;15.90;;;14.40;;
6955;SDS011;50345;51.136;16.886;2022-07-01T05:33:11;16.60;;;15.03;;
6955;SDS011;50345;51.136;16.886;2022-07-01T05:35:36;16.40;;;15.07;;
6955;SDS011;50345;51.136;16.886;2022-07-01T05:38:02;18.10;;;15.63;;
6955;SDS011;50345;51.136;16.886;2022-07-01T05:40:28;19.67;;;15.43;;
6955;SDS011;50345;51.136;16.886;2022-07-01T05:42:54;16.30;;;14.93;;
6955;SDS011;50345;51.136;16.886;2022-07-01T05:45:20;15.93;;;14.43;;
6955;SDS011;50345;51.136;16.886;2022-07-01T05:47:46;14.87;;;13.37;;
6955;SDS011;50345;51.136;16.886;2022-07-01T05:50:11;16.63;;;14.90;;
6955;SDS011;50345;51.136;16.886;2022-07-01T05:52:37;15.40;;;14.00;;
6955;SDS011;50345;51.136;16.886;2022-07-01T05:55:03;17.23;;;13.70;;
6955;SDS011;50345;51.136;16.886;2022-07-01T05:57:29;13.87;;;12.47;;
6955;SDS011;50345;51.136;16.886;2022-07-01T05:59:54;20.37;;;14.63;;
6955;SDS011;50345;51.136;16.886;2022-07-01T06:02:20;17.90;;;14.03;;
6955;SDS011;50345;51.136;16.886;2022-07-01T06:04:46;13.90;;;12.67;;
6955;SDS011;50345;51.136;16.886;2022-07-01T06:07:11;13.83;;;12.53;;
6955;SDS011;50345;51.136;16.886;2022-07-01T06:09:37;14.03;;;12.33;;
6955;SDS011;50345;51.136;16.886;2022-07-01T06:12:03;14.03;;;12.80;;
6955;SDS011;50345;51.136;16.886;2022-07-01T06:14:29;12.43;;;11.27;;
6955;SDS011;50345;51.136;16.886;2022-07-01T06:16:55;17.03;;;12.57;;
6955;SDS011;50345;51.136;16.886;2022-07-01T06:19:21;13.07;;;11.97;;
6955;SDS011;50345;51.136;16.886;2022-07-01T06:21:46;13.10;;;12.00;;
6955;SDS011;50345;51.136;16.886;2022-07-01T06:24:12;13.47;;;12.17;;
6955;SDS011;50345;51.136;16.886;2022-07-01T06:26:38;16.23;;;13.00;;
6955;SDS011;50345;51.136;16.886;2022-07-01T06:29:03;14.00;;;12.87;;
6955;SDS011;50345;51.136;16.886;2022-07-01T06:31:29;14.10;;;12.80;;
6955;SDS011;50345;51.136;16.886;2022-07-01T06:33:55;15.53;;;13.90;;
6955;SDS011;50345;51.136;16.886;2022-07-01T06:36:20;17.10;;;13.07;;
6955;SDS011;50345;51.136;16.886;2022-07-01T06:38:46;18.73;;;12.93;;
6955;SDS011;50345;51.136;16.886;2022-07-01T06:41:12;13.90;;;12.53;;
6955;SDS011;50345;51.136;16.886;2022-07-01T06:43:59;14.40;;;13.10;;
6955;SDS011;50345;51.136;16.886;2022-07-01T06:46:26;15.47;;;14.00;;
6955;SDS011;50345;51.136;16.886;2022-07-01T06:48:53;14.47;;;12.57;;
6955;SDS011;50345;51.136;16.886;2022-07-01T06:51:19;13.47;;;12.07;;
6955;SDS011;50345;51.136;16.886;2022-07-01T06:53:44;13.80;;;12.40;;
6955;SDS011;50345;51.136;16.886;2022-07-01T06:56:11;16.70;;;14.40;;
6955;SDS011;50345;51.136;16.886;2022-07-01T06:58:37;14.57;;;13.30;;
6955;SDS011;50345;51.136;16.886;2022-07-01T07:01:03;14.60;;;13.10;;
6955;SDS011;50345;51.136;16.886;2022-07-01T07:03:30;16.00;;;14.07;;
6955;SDS011;50345;51.136;16.886;2022-07-01T07:05:57;14.87;;;13.60;;
6955;SDS011;50345;51.136;16.886;2022-07-01T07:08:25;13.00;;;11.90;;
6955;SDS011;50345;51.136;16.886;2022-07-01T07:10:51;14.13;;;12.77;;
6955;SDS011;50345;51.136;16.886;2022-07-01T07:13:16;15.07;;;13.40;;
6955;SDS011;50345;51.136;16.886;2022-07-01T07:15:42;14.47;;;12.97;;
6955;SDS011;50345;51.136;16.886;2022-07-01T07:18:08;14.60;;;12.70;;
6955;SDS011;50345;51.136;16.886;2022-07-01T07:20:33;14.73;;;13.23;;
6955;SDS011;50345;51.136;16.886;2022-07-01T07:22:59;14.20;;;13.00;;
6955;SDS011;50345;51.136;16.886;2022-07-01T07:25:25;14.20;;;13.00;;
6955;SDS011;50345;51.136;16.886;2022-07-01T07:27:51;14.97;;;13.40;;
6955;SDS011;50345;51.136;16.886;2022-07-01T07:30:17;15.07;;;13.77;;
6955;SDS011;50345;51.136;16.886;2022-07-01T07:32:43;14.83;;;13.53;;
6955;SDS011;50345;51.136;16.886;2022-07-01T07:35:09;18.00;;;15.30;;
6955;SDS011;50345;51.136;16.886;2022-07-01T07:37:35;16.10;;;13.83;;
6955;SDS011;50345;51.136;16.886;2022-07-01T07:40:02;16.90;;;15.20;;
6955;SDS011;50345;51.136;16.886;2022-07-01T07:42:28;16.30;;;14.80;;
6955;SDS011;50345;51.136;16.886;2022-07-01T07:44:54;17.00;;;14.27;;
6955;SDS011;50345;51.136;16.886;2022-07-01T07:47:20;17.80;;;16.20;;
6955;SDS011;50345;51.136;16.886;2022-07-01T07:49:46;17.10;;;15.67;;
6955;SDS011;50345;51.136;16.886;2022-07-01T07:52:12;17.70;;;15.90;;
6955;SDS011;50345;51.136;16.886;2022-07-01T07:54:37;16.27;;;14.83;;
6955;SDS011;50345;51.136;16.886;2022-07-01T07:57:03;16.97;;;15.47;;
6955;SDS011;50345;51.136;16.886;2022-07-01T07:59:29;16.83;;;15.10;;
6955;SDS011;50345;51.136;16.886;2022-07-01T08:01:55;13.73;;;12.63;;
6955;SDS011;50345;51.136;16.886;2022-07-01T08:04:21;16.83;;;15.30;;
6955;SDS011;50345;51.136;16.886;2022-07-01T08:06:46;16.80;;;15.50;;
6955;SDS011;50345;51.136;16.886;2022-07-01T08:09:12;17.83;;;16.43;;
6955;SDS011;50345;51.136;16.886;2022-07-01T08:11:37;16.10;;;14.80;;
6955;SDS011;50345;51.136;16.886;2022-07-01T08:14:03;16.60;;;14.97;;
6955;SDS011;50345;51.136;16.886;2022-07-01T08:16:30;15.93;;;14.53;;
6955;SDS011;50345;51.136;16.886;2022-07-01T08:18:56;14.33;;;13.13;;
6955;SDS011;50345;51.136;16.886;2022-07-01T08:21:22;16.17;;;14.60;;
6955;SDS011;50345;51.136;16.886;2022-07-01T08:23:48;15.77;;;14.17;;
6955;SDS011;50345;51.136;16.886;2022-07-01T08:26:14;16.43;;;14.17;;
6955;SDS011;50345;51.136;16.886;2022-07-01T08:28:41;16.40;;;14.70;;
6955;SDS011;50345;51.136;16.886;2022-07-01T08:31:07;16.03;;;14.70;;
6955;SDS011;50345;51.136;16.886;2022-07-01T08:33:33;16.87;;;15.40;;
6955;SDS011;50345;51.136;16.886;2022-07-01T08:35:59;15.53;;;14.33;;
6955;SDS011;50345;51.136;16.886;2022-07-01T08:38:26;13.20;;;12.20;;
6955;SDS011;50345;51.136;16.886;2022-07-01T08:40:52;13.53;;;12.23;;
6955;SDS011;50345;51.136;16.886;2022-07-01T08:43:18;15.50;;;13.97;;
6955;SDS011;50345;51.136;16.886;2022-07-01T08:45:44;15.70;;;14.50;;
6955;SDS011;50345;51.136;16.886;2022-07-01T08:48:10;14.13;;;13.20;;
6955;SDS011;50345;51.136;16.886;2022-07-01T08:50:37;14.33;;;12.97;;
6955;SDS011;50345;51.136;16.886;2022-07-01T08:53:04;15.23;;;13.80;;
6955;SDS011;50345;51.136;16.886;2022-07-01T08:55:30;15.77;;;13.90;;
6955;SDS011;50345;51.136;16.886;2022-07-01T08:57:57;15.00;;;13.70;;
6955;SDS011;50345;51.136;16.886;2022-07-01T09:00:30;14.87;;;13.77;;
6955;SDS011;50345;51.136;16.886;2022-07-01T09:03:00;13.90;;;12.70;;
6955;SDS011;50345;51.136;16.886;2022-07-01T09:05:27;14.10;;;12.80;;
6955;SDS011;50345;51.136;16.886;2022-07-01T09:07:57;16.23;;;12.07;;
6955;SDS011;50345;51.136;16.886;2022-07-01T09:10:24;13.97;;;12.70;;
6955;SDS011;50345;51.136;16.886;2022-07-01T09:12:50;13.00;;;12.10;;
6955;SDS011;50345;51.136;16.886;2022-07-01T09:15:23;14.70;;;13.40;;
6955;SDS011;50345;51.136;16.886;2022-07-01T09:17:57;13.77;;;12.57;;
6955;SDS011;50345;51.136;16.886;2022-07-01T09:20:32;12.53;;;11.57;;
6955;SDS011;50345;51.136;16.886;2022-07-01T09:25:46;12.93;;;11.27;;
6955;SDS011;50345;51.136;16.886;2022-07-01T09:28:23;11.60;;;10.80;;
6955;SDS011;50345;51.136;16.886;2022-07-01T09:30:50;12.00;;;11.30;;
6955;SDS011;50345;51.136;16.886;2022-07-01T09:33:20;13.83;;;12.53;;
6955;SDS011;50345;51.136;16.886;2022-07-01T09:35:47;12.60;;;11.40;;
6955;SDS011;50345;51.136;16.886;2022-07-01T09:38:15;12.23;;;11.23;;
6955;SDS011;50345;51.136;16.886;2022-07-01T09:40:48;12.53;;;11.53;;
6955;SDS011;50345;51.136;16.886;2022-07-01T09:43:24;12.90;;;11.80;;
6955;SDS011;50345;51.136;16.886;2022-07-01T09:45:54;13.07;;;11.90;;
6955;SDS011;50345;51.136;16.886;2022-07-01T09:48:21;12.47;;;11.37;;
6955;SDS011;50345;51.136;16.886;2022-07-01T09:50:47;13.70;;;12.50;;
6955;SDS011;50345;51.136;16.886;2022-07-01T09:53:13;15.07;;;11.63;;
6955;SDS011;50345;51.136;16.886;2022-07-01T09:55:41;13.67;;;12.47;;
6955;SDS011;50345;51.136;16.886;2022-07-01T09:58:07;13.57;;;12.57;;
6955;SDS011;50345;51.136;16.886;2022-07-01T10:00:34;12.67;;;11.50;;
6955;SDS011;50345;51.136;16.886;2022-07-01T10:03:00;13.13;;;12.00;;
6955;SDS011;50345;51.136;16.886;2022-07-01T10:05:27;13.17;;;12.07;;
6955;SDS011;50345;51.136;16.886;2022-07-01T10:13:02;12.70;;;11.70;;
6955;SDS011;50345;51.136;16.886;2022-07-01T10:15:28;13.87;;;12.80;;
6955;SDS011;50345;51.136;16.886;2022-07-01T10:17:54;12.13;;;11.33;;
6955;SDS011;50345;51.136;16.886;2022-07-01T10:20:24;13.07;;;12.20;;
6955;SDS011;50345;51.136;16.886;2022-07-01T10:22:53;12.73;;;11.73;;
6955;SDS011;50345;51.136;16.886;2022-07-01T10:31:04;13.33;;;11.93;;
6955;SDS011;50345;51.136;16.886;2022-07-01T10:38:34;12.87;;;11.97;;
6955;SDS011;50345;51.136;16.886;2022-07-01T10:41:01;13.43;;;12.23;;
6955;SDS011;50345;51.136;16.886;2022-07-01T10:43:35;12.33;;;11.23;;
6955;SDS011;50345;51.136;16.886;2022-07-01T10:46:01;13.07;;;11.87;;
6955;SDS011;50345;51.136;16.886;2022-07-01T10:48:30;12.87;;;11.83;;
6955;SDS011;50345;51.136;16.886;2022-07-01T10:50:56;12.23;;;11.37;;
6955;SDS011;50345;51.136;16.886;2022-07-01T10:53:22;12.40;;;11.50;;
6955;SDS011;50345;51.136;16.886;2022-07-01T10:55:52;12.17;;;11.07;;
6955;SDS011;50345;51.136;16.886;2022-07-01T10:58:34;11.97;;;11.17;;
6955;SDS011;50345;51.136;16.886;2022-07-01T11:01:00;13.40;;;12.23;;
6955;SDS011;50345;51.136;16.886;2022-07-01T11:03:26;11.83;;;10.93;;
6955;SDS011;50345;51.136;16.886;2022-07-01T11:05:53;11.57;;;10.70;;
6955;SDS011;50345;51.136;16.886;2022-07-01T11:08:20;12.17;;;11.47;;
6955;SDS011;50345;51.136;16.886;2022-07-01T11:10:50;12.37;;;11.13;;
6955;SDS011;50345;51.136;16.886;2022-07-01T11:13:17;12.27;;;11.27;;
6955;SDS011;50345;51.136;16.886;2022-07-01T11:15:45;12.90;;;11.97;;
6955;SDS011;50345;51.136;16.886;2022-07-01T11:18:12;13.33;;;12.10;;
6955;SDS011;50345;51.136;16.886;2022-07-01T11:20:39;11.47;;;10.67;;
6955;SDS011;50345;51.136;16.886;2022-07-01T11:23:05;13.90;;;12.67;;
6955;SDS011;50345;51.136;16.886;2022-07-01T11:25:31;12.40;;;11.60;;
6955;SDS011;50345;51.136;16.886;2022-07-01T11:27:57;12.17;;;11.17;;
6955;SDS011;50345;51.136;16.886;2022-07-01T11:30:24;13.67;;;11.87;;
6955;SDS011;50345;51.136;16.886;2022-07-01T11:32:57;12.17;;;11.27;;
6955;SDS011;50345;51.136;16.886;2022-07-01T11:35:27;13.00;;;11.33;;
6955;SDS011;50345;51.136;16.886;2022-07-01T11:40:58;12.50;;;11.40;;
6955;SDS011;50345;51.136;16.886;2022-07-01T11:43:25;17.03;;;12.83;;
6955;SDS011;50345;51.136;16.886;2022-07-01T11:45:52;10.27;;;9.27;;
6955;SDS011;50345;51.136;16.886;2022-07-01T11:48:28;10.83;;;7.73;;
6955;SDS011;50345;51.136;16.886;2022-07-01T11:50:54;12.40;;;6.73;;
6955;SDS011;50345;51.136;16.886;2022-07-01T11:53:20;7.10;;;6.37;;
6955;SDS011;50345;51.136;16.886;2022-07-01T11:55:46;11.73;;;6.97;;
6955;SDS011;50345;51.136;16.886;2022-07-01T11:58:13;7.30;;;6.60;;
6955;SDS011;50345;51.136;16.886;2022-07-01T12:00:39;8.17;;;7.37;;
6955;SDS011;50345;51.136;16.886;2022-07-01T12:03:04;7.97;;;7.27;;
6955;SDS011;50345;51.136;16.886;2022-07-01T12:05:32;11.50;;;7.90;;
6955;SDS011;50345;51.136;16.886;2022-07-01T12:07:59;11.70;;;9.37;;
6955;SDS011;50345;51.136;16.886;2022-07-01T12:10:25;10.93;;;8.60;;
6955;SDS011;50345;51.136;16.886;2022-07-01T12:12:51;8.90;;;7.93;;
6955;SDS011;50345;51.136;16.886;2022-07-01T12:15:17;11.23;;;8.80;;
6955;SDS011;50345;51.136;16.886;2022-07-01T12:17:45;11.70;;;9.20;;
6955;SDS011;50345;51.136;16.886;2022-07-01T12:20:11;9.93;;;9.03;;
6955;SDS011;50345;51.136;16.886;2022-07-01T12:22:36;11.00;;;10.00;;
6955;SDS011;50345;51.136;16.886;2022-07-01T12:25:09;9.37;;;8.67;;
6955;SDS011;50345;51.136;16.886;2022-07-01T12:27:36;10.30;;;9.30;;
6955;SDS011;50345;51.136;16.886;2022-07-01T12:30:04;11.23;;;10.13;;
6955;SDS011;50345;51.136;16.886;2022-07-01T12:32:33;10.60;;;9.60;;
6955;SDS011;50345;51.136;16.886;2022-07-01T12:35:01;10.63;;;9.73;;
6955;SDS011;50345;51.136;16.886;2022-07-01T12:37:34;12.50;;;9.07;;
6955;SDS011;50345;51.136;16.886;2022-07-01T12:40:35;8.50;;;7.70;;
6955;SDS011;50345;51.136;16.886;2022-07-01T12:42:54;8.30;;;7.40;;
6955;SDS011;50345;51.136;16.886;2022-07-01T12:45:24;16.77;;;8.03;;
6955;SDS011;50345;51.136;16.886;2022-07-01T12:47:51;12.10;;;7.03;;
6955;SDS011;50345;51.136;16.886;2022-07-01T12:50:25;13.70;;;8.20;;
6955;SDS011;50345;51.136;16.886;2022-07-01T12:53:02;8.80;;;7.97;;
6955;SDS011;50345;51.136;16.886;2022-07-01T12:55:38;7.10;;;6.33;;
6955;SDS011;50345;51.136;16.886;2022-07-01T12:58:09;7.83;;;6.93;;
6955;SDS011;50345;51.136;16.886;2022-07-01T13:00:39;8.90;;;7.53;;
6955;SDS011;50345;51.136;16.886;2022-07-01T13:03:06;8.63;;;7.90;;
6955;SDS011;50345;51.136;16.886;2022-07-01T13:05:33;9.77;;;7.90;;
6955;SDS011;50345;51.136;16.886;2022-07-01T13:08:00;8.70;;;7.80;;
6955;SDS011;50345;51.136;16.886;2022-07-01T13:10:26;9.20;;;8.40;;
6955;SDS011;50345;51.136;16.886;2022-07-01T13:12:52;8.77;;;7.97;;
6955;SDS011;50345;51.136;16.886;2022-07-01T13:15:19;8.97;;;8.10;;
6955;SDS011;50345;51.136;16.886;2022-07-01T13:17:45;10.33;;;9.43;;
6955;SDS011;50345;51.136;16.886;2022-07-01T13:20:12;10.57;;;9.27;;
6955;SDS011;50345;51.136;16.886;2022-07-01T13:22:38;10.47;;;9.57;;
6955;SDS011;50345;51.136;16.886;2022-07-01T13:25:04;14.50;;;8.60;;
6955;SDS011;50345;51.136;16.886;2022-07-01T13:27:31;10.30;;;9.13;;
6955;SDS011;50345;51.136;16.886;2022-07-01T13:29:56;9.60;;;8.70;;
6955;SDS011;50345;51.136;16.886;2022-07-01T13:32:22;11.07;;;9.97;;
6955;SDS011;50345;51.136;16.886;2022-07-01T13:34:48;10.13;;;9.23;;
6955;SDS011;50345;51.136;16.886;2022-07-01T13:37:14;10.27;;;9.27;;
6955;SDS011;50345;51.136;16.886;2022-07-01T13:39:41;10.37;;;9.37;;
6955;SDS011;50345;51.136;16.886;2022-07-01T13:42:06;11.90;;;10.70;;
6955;SDS011;50345;51.136;16.886;2022-07-01T13:44:32;20.10;;;16.23;;
6955;SDS011;50345;51.136;16.886;2022-07-01T13:46:59;29.60;;;26.80;;
6955;SDS011;50345;51.136;16.886;2022-07-01T13:49:26;19.40;;;17.20;;
6955;SDS011;50345;51.136;16.886;2022-07-01T13:51:53;16.47;;;14.73;;
6955;SDS011;50345;51.136;16.886;2022-07-01T13:54:18;18.33;;;16.73;;
6955;SDS011;50345;51.136;16.886;2022-07-01T13:56:44;17.10;;;15.40;;
6955;SDS011;50345;51.136;16.886;2022-07-01T13:59:10;17.90;;;16.10;;
6955;SDS011;50345;51.136;16.886;2022-07-01T14:01:36;15.10;;;12.70;;
6955;SDS011;50345;51.136;16.886;2022-07-01T14:04:02;28.50;;;25.90;;
6955;SDS011;50345;51.136;16.886;2022-07-01T14:06:27;28.10;;;25.37;;
6955;SDS011;50345;51.136;16.886;2022-07-01T14:08:53;29.23;;;26.17;;
6955;SDS011;50345;51.136;16.886;2022-07-01T14:11:18;19.67;;;17.97;;
6955;SDS011;50345;51.136;16.886;2022-07-01T14:13:44;21.80;;;19.37;;
6955;SDS011;50345;51.136;16.886;2022-07-01T14:16:10;18.40;;;16.83;;
6955;SDS011;50345;51.136;16.886;2022-07-01T14:18:35;28.67;;;25.97;;
6955;SDS011;50345;51.136;16.886;2022-07-01T14:21:02;28.60;;;26.17;;
6955;SDS011;50345;51.136;16.886;2022-07-01T14:23:28;25.57;;;23.27;;
6955;SDS011;50345;51.136;16.886;2022-07-01T14:25:54;24.90;;;20.27;;
6955;SDS011;50345;51.136;16.886;2022-07-01T14:28:19;21.53;;;19.33;;
6955;SDS011;50345;51.136;16.886;2022-07-01T14:30:45;19.67;;;17.60;;
6955;SDS011;50345;51.136;16.886;2022-07-01T14:33:11;16.20;;;14.60;;
6955;SDS011;50345;51.136;16.886;2022-07-01T14:35:38;10.40;;;9.30;;
6955;SDS011;50345;51.136;16.886;2022-07-01T14:38:04;12.07;;;10.90;;
6955;SDS011;50345;51.136;16.886;2022-07-01T14:40:30;6.90;;;6.30;;
6955;SDS011;50345;51.136;16.886;2022-07-01T14:42:57;7.67;;;7.00;;